EHGR/GLZ METAR and TAF weather

Enter ICAO airport designator
Station Type Date Time Source
EHGR METAR 2021/02/27 09:39 UTC NOAA

EHGR 270939Z AUTO VRB01KT 6000 BR BKN003 OVC004 03/03 Q1041 YLO


Station Type Date Time Source
EHGR Decoded METAR 2021/02/27 09:39 UTC NOAA

Gilze-Rijen, Netherlands (EHGR) 51-34N 004-56E 24M
Feb 27, 2021 - 04:39 AM EST / 2021.02.27 0939 UTC
Wind: Variable at 1 MPH (1 KT):0
Visibility: 3 mile(s):0
Sky conditions: overcast
Weather: mist
Temperature: 37 F (3 C)
Dew Point: 37 F (3 C)
Relative Humidity: 100%
Pressure (altimeter): 30.74 in. Hg (1041 hPa)
ob: EHGR 270939Z AUTO VRB01KT 6000 BR BKN003 OVC004 03/03 Q1041 YLO
cycle: 9

Station Type Date Time Source
EHGR TAF 2021/02/26 10:03 UTC NOAA

TAF TAF EHGR 260956Z 2610/2622 33006KT CAVOK
TEMPO 2611/2616 33008G18KT
BECMG 2621/2622 VRB02KT 4000 BR

Example: see airport list